Time,TemperatureF,DewpointF,PressureIn,WindDirection,WindDirectionDegrees,WindSpeedMPH,WindSpeedGustMPH,Humidity,HourlyPrecipIn,Conditions,Clouds,dailyrainin,SoftwareType,DateUTC
2013-07-08 00:04:00,66.9,58.0,29.87,SSW,196,4.0,14.0,74,0.00,,,0.00,weatherlink.com 1.10,2013-07-08 07:04:00,
2013-07-08 00:19:00,66.5,58.0,29.87,South,185,4.0,11.0,74,0.00,,,0.00,weatherlink.com 1.10,2013-07-08 07:19:00,
2013-07-08 00:34:00,65.8,58.0,29.88,SSE,165,3.0,7.0,75,0.00,,,0.00,weatherlink.com 1.10,2013-07-08 07:34:00,
2013-07-08 00:49:00,65.5,58.0,29.88,West,262,5.0,15.0,76,0.00,,,0.00,weatherlink.com 1.10,2013-07-08 07:49:00,
2013-07-08 01:04:00,65.1,57.0,29.88,South,175,4.0,10.0,76,0.00,,,0.00,weatherlink.com 1.10,2013-07-08 08:04:00,
2013-07-08 01:19:00,64.8,57.0,29.89,WSW,243,5.0,19.0,77,0.00,,,0.00,weatherlink.com 1.10,2013-07-08 08:19:00,
2013-07-08 01:34:00,64.5,58.0,29.89,South,187,2.0,15.0,78,0.00,,,0.00,weatherlink.com 1.10,2013-07-08 08:34:00,
2013-07-08 01:49:00,64.0,57.0,29.89,SSW,202,6.0,13.0,78,0.00,,,0.00,weatherlink.com 1.10,2013-07-08 08:49:00,
2013-07-08 02:04:00,63.3,57.0,29.89,WSW,244,4.0,13.0,80,0.00,,,0.00,weatherlink.com 1.10,2013-07-08 09:04:00,
2013-07-08 02:20:00,63.0,57.0,29.89,SW,214,13.0,13.0,80,0.00,,,0.00,weatherlink.com 1.10,2013-07-08 09:20:00,
2013-07-08 02:35:00,62.1,56.0,29.89,SW,236,5.0,19.0,81,0.00,,,0.00,weatherlink.com 1.10,2013-07-08 09:35:00,
2013-07-08 02:50:00,61.7,56.0,29.90,SW,233,7.0,16.0,82,0.00,,,0.00,weatherlink.com 1.10,2013-07-08 09:50:00,
2013-07-08 03:05:00,61.4,57.0,29.90,SW,232,7.0,15.0,84,0.00,,,0.00,weatherlink.com 1.10,2013-07-08 10:05:00,
2013-07-08 03:20:00,61.3,57.0,29.91,SSW,204,1.0,16.0,84,0.00,,,0.00,weatherlink.com 1.10,2013-07-08 10:20:00,
2013-07-08 03:35:00,61.0,56.0,29.90,SW,231,7.0,20.0,83,0.00,,,0.00,weatherlink.com 1.10,2013-07-08 10:35:00,
2013-07-08 03:50:00,60.7,56.0,29.91,West,272,9.0,12.0,83,0.00,,,0.00,weatherlink.com 1.10,2013-07-08 10:50:00,
2013-07-08 04:05:00,60.6,55.0,29.91,SW,222,6.0,13.0,82,0.00,,,0.00,weatherlink.com 1.10,2013-07-08 11:05:00,
2013-07-08 04:20:00,60.4,55.0,29.91,WSW,258,8.0,15.0,82,0.00,,,0.00,weatherlink.com 1.10,2013-07-08 11:20:00,
2013-07-08 04:35:00,60.1,55.0,29.91,West,265,2.0,19.0,82,0.00,,,0.00,weatherlink.com 1.10,2013-07-08 11:35:00,
2013-07-08 04:50:00,59.9,55.0,29.91,West,260,3.0,12.0,83,0.00,,,0.00,weatherlink.com 1.10,2013-07-08 11:50:00,
2013-07-08 05:05:00,59.8,55.0,29.92,WSW,238,7.0,14.0,83,0.00,,,0.00,weatherlink.com 1.10,2013-07-08 12:05:00,
2013-07-08 05:20:00,59.6,54.0,29.92,South,175,9.0,12.0,83,0.00,,,0.00,weatherlink.com 1.10,2013-07-08 12:20:00,
2013-07-08 05:35:00,59.5,55.0,29.92,SSW,210,7.0,15.0,84,0.00,,,0.00,weatherlink.com 1.10,2013-07-08 12:35:00,
2013-07-08 05:50:00,59.4,55.0,29.92,SW,231,3.0,13.0,85,0.00,,,0.00,weatherlink.com 1.10,2013-07-08 12:50:00,
2013-07-08 06:05:00,59.3,55.0,29.93,WSW,250,5.0,14.0,85,0.00,,,0.00,weatherlink.com 1.10,2013-07-08 13:05:00,
2013-07-08 06:20:00,59.3,55.0,29.94,WSW,254,6.0,13.0,85,0.00,,,0.00,weatherlink.com 1.10,2013-07-08 13:20:00,
2013-07-08 06:35:00,59.3,55.0,29.95,SW,233,7.0,15.0,84,0.00,,,0.00,weatherlink.com 1.10,2013-07-08 13:35:00,
2013-07-08 06:50:00,59.4,55.0,29.95,WSW,245,11.0,18.0,84,0.00,,,0.00,weatherlink.com 1.10,2013-07-08 13:50:00,
2013-07-08 07:05:00,59.3,55.0,29.96,SSW,203,5.0,18.0,85,0.00,,,0.00,weatherlink.com 1.10,2013-07-08 14:05:00,
2013-07-08 07:20:00,59.6,55.0,29.96,SSW,212,3.0,16.0,85,0.00,,,0.00,weatherlink.com 1.10,2013-07-08 14:20:00,
2013-07-08 07:35:00,59.9,55.0,29.97,SW,219,3.0,19.0,85,0.00,,,0.00,weatherlink.com 1.10,2013-07-08 14:35:00,
2013-07-08 07:50:00,60.2,55.0,29.97,SW,223,5.0,15.0,84,0.00,,,0.00,weatherlink.com 1.10,2013-07-08 14:50:00,
2013-07-08 08:05:00,60.6,55.0,29.97,SW,231,7.0,19.0,81,0.00,,,0.00,weatherlink.com 1.10,2013-07-08 15:05:00,
2013-07-08 08:20:00,61.4,55.0,29.98,West,260,3.0,17.0,80,0.00,,,0.00,weatherlink.com 1.10,2013-07-08 15:20:00,
2013-07-08 08:36:00,61.9,55.0,29.98,WSW,248,5.0,16.0,79,0.00,,,0.00,weatherlink.com 1.10,2013-07-08 15:36:00,
2013-07-08 08:51:00,62.4,56.0,29.98,SSW,202,5.0,16.0,79,0.00,,,0.00,weatherlink.com 1.10,2013-07-08 15:51:00,
2013-07-08 09:06:00,62.6,56.0,29.98,SW,233,8.0,18.0,78,0.00,,,0.00,weatherlink.com 1.10,2013-07-08 16:06:00,
2013-07-08 09:21:00,63.3,56.0,29.98,West,262,5.0,16.0,77,0.00,,,0.00,weatherlink.com 1.10,2013-07-08 16:21:00,
2013-07-08 09:36:00,64.5,56.0,29.97,SW,236,5.0,14.0,74,0.00,,,0.00,weatherlink.com 1.10,2013-07-08 16:36:00,
2013-07-08 09:51:00,65.4,56.0,29.98,SW,227,5.0,23.0,72,0.00,,,0.00,weatherlink.com 1.10,2013-07-08 16:51:00,
2013-07-08 10:06:00,66.3,57.0,29.97,WSW,244,5.0,18.0,71,0.00,,,0.00,weatherlink.com 1.10,2013-07-08 17:06:00,
2013-07-08 10:21:00,66.9,57.0,29.97,South,184,6.0,15.0,70,0.00,,,0.00,weatherlink.com 1.10,2013-07-08 17:21:00,
2013-07-08 11:06:00,68.6,57.0,29.96,WSW,249,6.0,17.0,66,0.00,,,0.00,weatherlink.com 1.10,2013-07-08 18:06:00,
2013-07-08 11:36:00,70.6,56.0,29.96,West,269,5.0,14.0,61,0.00,,,0.00,weatherlink.com 1.10,2013-07-08 18:36:00,
2013-07-08 11:51:00,71.6,55.0,29.96,SW,216,6.0,17.0,57,0.00,,,0.00,weatherlink.com 1.10,2013-07-08 18:51:00,
2013-07-08 12:06:00,72.8,55.0,29.96,SW,231,3.0,17.0,54,0.00,,,0.00,weatherlink.com 1.10,2013-07-08 19:06:00,
2013-07-08 12:36:00,74.2,55.0,29.96,SW,219,7.0,18.0,52,0.00,,,0.00,weatherlink.com 1.10,2013-07-08 19:36:00,
2013-07-08 12:51:00,74.5,55.0,29.96,SSW,208,5.0,18.0,50,0.00,,,0.00,weatherlink.com 1.10,2013-07-08 19:51:00,
2013-07-08 13:06:00,75.9,55.0,29.96,SW,229,9.0,15.0,48,0.00,,,0.00,weatherlink.com 1.10,2013-07-08 20:06:00,
2013-07-08 14:06:00,77.8,55.0,29.94,SW,222,7.0,14.0,45,0.00,,,0.00,weatherlink.com 1.10,2013-07-08 21:06:00,
2013-07-08 14:36:00,77.8,56.0,29.94,SW,219,8.0,15.0,47,0.00,,,0.00,weatherlink.com 1.10,2013-07-08 21:36:00,
2013-07-08 15:06:00,78.3,56.0,29.94,SW,224,3.0,16.0,47,0.00,,,0.00,weatherlink.com 1.10,2013-07-08 22:06:00,
2013-07-08 15:21:00,79.3,56.0,29.93,SW,233,4.0,12.0,45,0.00,,,0.00,weatherlink.com 1.10,2013-07-08 22:21:00,
2013-07-08 15:36:00,79.7,57.0,29.93,WSW,256,3.0,13.0,46,0.00,,,0.00,weatherlink.com 1.10,2013-07-08 22:36:00,
2013-07-08 15:51:00,79.5,59.0,29.93,WSW,239,4.0,18.0,49,0.00,,,0.00,weatherlink.com 1.10,2013-07-08 22:51:00,
2013-07-08 16:06:00,80.0,57.0,29.93,SW,235,2.0,12.0,45,0.00,,,0.00,weatherlink.com 1.10,2013-07-08 23:06:00,
2013-07-08 16:21:00,79.2,58.0,29.93,SW,226,5.0,9.0,49,0.00,,,0.00,weatherlink.com 1.10,2013-07-08 23:21:00,
2013-07-08 16:36:00,79.3,57.0,29.92,WSW,258,6.0,13.0,47,0.00,,,0.00,weatherlink.com 1.10,2013-07-08 23:36:00,
2013-07-08 17:21:00,79.0,58.0,29.92,West,273,11.0,13.0,48,0.00,,,0.00,weatherlink.com 1.10,2013-07-09 00:21:00,
2013-07-08 17:36:00,78.2,57.0,29.91,WSW,239,10.0,13.0,48,0.00,,,0.00,weatherlink.com 1.10,2013-07-09 00:36:00,
2013-07-08 17:51:00,78.1,57.0,29.91,West,265,5.0,10.0,48,0.00,,,0.00,weatherlink.com 1.10,2013-07-09 00:51:00,
2013-07-08 18:37:00,78.7,57.0,29.92,WSW,250,2.0,11.0,48,0.00,,,0.00,weatherlink.com 1.10,2013-07-09 01:37:00,
2013-07-08 18:51:00,78.7,57.0,29.92,WSW,254,1.0,10.0,48,0.00,,,0.00,weatherlink.com 1.10,2013-07-09 01:51:00,
2013-07-08 19:06:00,78.9,57.0,29.92,West,260,3.0,9.0,48,0.00,,,0.00,weatherlink.com 1.10,2013-07-09 02:06:00,
2013-07-08 19:36:00,77.1,59.0,29.92,West,262,0.0,9.0,54,0.00,,,0.00,weatherlink.com 1.10,2013-07-09 02:36:00,
2013-07-08 20:07:00,76.8,59.0,29.93,SW,231,0.0,11.0,55,0.00,,,0.00,weatherlink.com 1.10,2013-07-09 03:07:00,
2013-07-08 20:37:00,76.0,59.0,29.93,WSW,239,4.0,10.0,56,0.00,,,0.00,weatherlink.com 1.10,2013-07-09 03:37:00,
2013-07-08 20:52:00,75.5,59.0,29.93,SSW,210,3.0,6.0,57,0.00,,,0.00,weatherlink.com 1.10,2013-07-09 03:52:00,
2013-07-08 21:07:00,75.4,59.0,29.94,NW,305,3.0,8.0,58,0.00,,,0.00,weatherlink.com 1.10,2013-07-09 04:07:00,
2013-07-08 21:22:00,72.3,60.0,29.94,NNW,348,0.0,5.0,65,0.00,,,0.00,weatherlink.com 1.10,2013-07-09 04:22:00,
2013-07-08 21:37:00,72.9,60.0,29.95,WSW,253,3.0,9.0,64,0.00,,,0.00,weatherlink.com 1.10,2013-07-09 04:37:00,
2013-07-08 21:52:00,70.7,60.0,29.95,NW,307,0.0,6.0,68,0.00,,,0.00,weatherlink.com 1.10,2013-07-09 04:52:00,
2013-07-08 22:07:00,69.2,59.0,29.95,NW,322,3.0,5.0,71,0.00,,,0.00,weatherlink.com 1.10,2013-07-09 05:07:00,
2013-07-08 22:22:00,68.4,59.0,29.96,NW,316,1.0,4.0,72,0.00,,,0.00,weatherlink.com 1.10,2013-07-09 05:22:00,
2013-07-08 22:37:00,69.6,60.0,29.97,WSW,258,1.0,7.0,71,0.00,,,0.00,weatherlink.com 1.10,2013-07-09 05:37:00,
2013-07-08 22:52:00,70.3,60.0,29.98,SW,222,1.0,6.0,69,0.00,,,0.00,weatherlink.com 1.10,2013-07-09 05:52:00,
2013-07-08 23:07:00,70.1,59.0,29.98,SW,232,2.0,6.0,69,0.00,,,0.00,weatherlink.com 1.10,2013-07-09 06:07:00,
2013-07-08 23:22:00,68.3,59.0,29.98,NW,321,4.0,8.0,72,0.00,,,0.00,weatherlink.com 1.10,2013-07-09 06:22:00,
2013-07-08 23:37:00,66.9,58.0,29.98,NW,319,3.0,4.0,74,0.00,,,0.00,weatherlink.com 1.10,2013-07-09 06:37:00,
2013-07-08 23:52:00,65.7,59.0,29.99,NNW,335,2.0,4.0,78,0.00,,,0.00,weatherlink.com 1.10,2013-07-09 06:52:00,